createdAt,value
2022-11-24T00:02:45.715Z,99269.84
2022-11-24T00:07:47.116Z,99272.06
2022-11-24T00:12:48.409Z,99271.94
2022-11-24T00:17:49.684Z,99274.63
2022-11-24T00:22:50.984Z,99284.00
2022-11-24T00:27:52.668Z,99279.34
2022-11-24T00:32:55.260Z,99282.97
2022-11-24T00:37:56.611Z,99290.03
2022-11-24T00:42:57.900Z,99293.13
2022-11-24T00:47:59.163Z,99304.53
2022-11-24T00:53:00.428Z,99316.53
2022-11-24T00:58:01.847Z,99321.16
2022-11-24T01:03:03.177Z,99326.22
2022-11-24T01:08:05.275Z,99334.16
2022-11-24T01:13:06.567Z,99347.16
2022-11-24T01:18:08.019Z,99348.31
2022-11-24T01:23:09.273Z,99348.06
2022-11-24T01:28:10.542Z,99348.31
2022-11-24T01:33:11.808Z,99357.22
2022-11-24T01:38:13.072Z,99357.94
2022-11-24T01:43:20.440Z,99370.47
2022-11-24T01:48:30.345Z,99367.44
2022-11-24T01:53:31.701Z,99366.13
2022-11-24T01:58:35.098Z,99378.88
2022-11-24T02:03:39.725Z,99370.91
2022-11-24T02:08:47.142Z,99385.16
2022-11-24T02:13:51.538Z,99393.88
2022-11-24T02:18:53.696Z,99391.56
2022-11-24T02:24:06.687Z,99393.97
2022-11-24T02:29:09.240Z,99404.38
2022-11-24T02:34:10.524Z,99392.41
2022-11-24T02:39:13.827Z,99390.59
2022-11-24T02:44:17.625Z,99391.44
2022-11-24T02:49:18.919Z,99390.09
2022-11-24T02:54:20.224Z,99373.41
2022-11-24T02:59:21.573Z,99380.41
2022-11-24T03:04:23.044Z,99396.69
2022-11-24T03:09:24.401Z,99401.88
2022-11-24T03:14:25.698Z,99403.78
2022-11-24T03:19:26.956Z,99406.50
2022-11-24T03:24:28.282Z,99399.91
2022-11-24T03:29:30.042Z,99409.53
2022-11-24T03:34:31.496Z,99412.41
2022-11-24T03:39:33.063Z,99415.16
2022-11-24T03:44:34.730Z,99411.34
2022-11-24T03:49:36.437Z,99405.38
2022-11-24T03:54:37.818Z,99400.47
2022-11-24T03:59:39.171Z,99396.09
2022-11-24T04:04:40.425Z,99422.16
2022-11-24T04:09:41.781Z,99425.19
2022-11-24T04:14:43.117Z,99423.50
2022-11-24T04:19:44.416Z,99422.97
2022-11-24T04:24:45.662Z,99437.53
2022-11-24T04:29:46.982Z,99434.34
2022-11-24T04:34:48.244Z,99441.56
2022-11-24T04:39:49.520Z,99449.66
2022-11-24T04:44:50.783Z,99452.31
2022-11-24T04:49:52.396Z,99452.53
2022-11-24T04:54:53.671Z,99461.91
2022-11-24T04:59:55.447Z,99467.53
2022-11-24T05:04:56.704Z,99468.50
2022-11-24T05:10:16.463Z,99482.53
2022-11-24T05:15:17.810Z,99486.63
2022-11-24T05:20:19.986Z,99491.69
2022-11-24T05:25:21.429Z,99488.50
2022-11-24T05:30:22.757Z,99487.56
2022-11-24T05:35:24.297Z,99496.97
2022-11-24T05:40:25.633Z,99499.38
2022-11-24T05:45:27.053Z,99501.50
2022-11-24T05:50:28.309Z,99506.28
2022-11-24T05:55:29.717Z,99523.13
2022-11-24T06:00:33.107Z,99511.16
2022-11-24T06:05:34.383Z,99520.91
2022-11-24T06:10:35.843Z,99523.75
2022-11-24T06:15:37.817Z,99519.16
2022-11-24T06:20:39.237Z,99526.03
2022-11-24T06:25:40.670Z,99533.34
2022-11-24T06:30:42.010Z,99540.78
2022-11-24T06:35:43.307Z,99541.19
2022-11-24T06:40:44.562Z,99547.78
2022-11-24T06:45:51.481Z,99549.63
2022-11-24T06:50:53.541Z,99546.00
2022-11-24T06:55:58.780Z,99553.25
2022-11-24T07:01:00.282Z,99558.56
2022-11-24T07:06:01.750Z,99565.44
2022-11-24T07:11:07.869Z,99566.41
2022-11-24T07:16:21.862Z,99568.66
2022-11-24T07:21:24.549Z,99582.13
2022-11-24T07:26:26.516Z,99588.22
2022-11-24T07:31:27.989Z,99582.97
2022-11-24T07:36:29.502Z,99587.72
2022-11-24T07:41:30.794Z,99596.34
2022-11-24T07:46:32.075Z,99611.00
2022-11-24T07:51:33.402Z,99616.59
2022-11-24T07:56:34.757Z,99611.09
2022-11-24T08:01:36.117Z,99617.97
2022-11-24T08:06:40.876Z,99625.84
2022-11-24T08:11:45.935Z,99633.19
2022-11-24T08:16:47.435Z,99637.44
2022-11-24T08:21:48.870Z,99637.97
2022-11-24T08:26:50.303Z,99643.59
2022-11-24T08:31:51.873Z,99642.31
2022-11-24T08:36:53.510Z,99641.25
2022-11-24T08:41:54.814Z,99659.59
2022-11-24T08:46:56.130Z,99658.59
2022-11-24T08:51:57.815Z,99658.03
2022-11-24T08:56:59.111Z,99671.59
2022-11-24T09:02:00.465Z,99672.34
2022-11-24T09:07:01.763Z,99664.38
2022-11-24T09:12:03.115Z,99674.25
2022-11-24T09:17:04.481Z,99664.69
2022-11-24T09:22:05.804Z,99682.31
2022-11-24T09:27:07.081Z,99698.50
2022-11-24T09:32:08.370Z,99700.94
2022-11-24T09:37:09.705Z,99707.28
2022-11-24T09:42:26.739Z,99698.44
2022-11-24T09:47:41.681Z,99710.31
2022-11-24T09:52:54.241Z,99717.03
2022-11-24T09:58:23.116Z,99717.63
2022-11-24T10:03:34.330Z,99718.88
2022-11-24T10:08:38.622Z,99723.19
2022-11-24T10:13:48.013Z,99732.75
2022-11-24T10:19:37.095Z,99740.94
2022-11-24T10:24:58.627Z,99741.34
2022-11-24T10:30:01.160Z,99748.84
2022-11-24T10:35:21.614Z,99756.13
2022-11-24T10:40:56.898Z,99750.41
2022-11-24T10:46:13.313Z,99771.31
2022-11-24T10:51:36.278Z,99764.28
2022-11-24T10:56:42.511Z,99759.59
2022-11-24T11:01:43.948Z,99754.72
2022-11-24T11:06:45.788Z,99765.38
2022-11-24T11:11:51.174Z,99767.28
2022-11-24T11:16:55.477Z,99774.06
2022-11-24T11:22:02.309Z,99786.59
2022-11-24T11:27:16.350Z,99777.38
2022-11-24T11:37:42.760Z,99793.09
2022-11-24T11:43:03.536Z,99788.34
2022-11-24T11:48:27.804Z,99786.31
2022-11-24T11:53:46.400Z,99790.41
2022-11-24T11:58:53.491Z,99801.75
2022-11-24T12:04:20.391Z,99801.66
2022-11-24T12:09:29.570Z,99795.97
2022-11-24T12:14:46.643Z,99804.22
2022-11-24T12:20:17.004Z,99812.56
2022-11-24T12:25:21.302Z,99817.19
2022-11-24T12:30:23.803Z,99823.38
2022-11-24T12:35:45.664Z,99823.97
2022-11-24T12:46:47.075Z,99823.59
2022-11-24T12:52:01.291Z,99830.63
2022-11-24T12:57:14.451Z,99837.84
2022-11-24T13:02:25.962Z,99831.97
2022-11-24T13:07:43.664Z,99835.19
2022-11-24T13:12:57.308Z,99840.47
2022-11-24T13:18:08.576Z,99839.84
2022-11-24T13:23:26.038Z,99842.28
2022-11-24T13:29:06.133Z,99849.44
2022-11-24T13:34:42.918Z,99862.59
2022-11-24T13:40:08.323Z,99870.34
2022-11-24T13:45:51.317Z,99867.69
2022-11-24T13:50:58.756Z,99869.72
2022-11-24T13:56:12.859Z,99869.28
2022-11-24T14:01:36.298Z,99874.25
2022-11-24T14:06:44.182Z,99868.13
2022-11-24T14:11:58.190Z,99860.38
2022-11-24T14:17:07.860Z,99859.84
2022-11-24T14:22:36.571Z,99855.31
2022-11-24T14:27:39.009Z,99862.81
2022-11-24T14:32:42.154Z,99870.00
2022-11-24T14:37:43.445Z,99867.63
2022-11-24T14:42:50.270Z,99876.66
2022-11-24T14:47:51.737Z,99873.44
2022-11-24T14:52:58.010Z,99871.50
2022-11-24T14:57:59.841Z,99880.31
2022-11-24T15:03:01.063Z,99880.88
2022-11-24T15:08:03.499Z,99885.09
2022-11-24T15:13:18.142Z,99884.50
2022-11-24T15:18:26.321Z,99896.72
2022-11-24T15:23:32.187Z,99903.28
2022-11-24T15:28:33.550Z,99901.44
2022-11-24T15:33:34.844Z,99903.91
2022-11-24T15:38:36.137Z,99907.41
2022-11-24T15:43:41.169Z,99913.28
2022-11-24T15:48:42.459Z,99925.13
2022-11-24T15:53:54.119Z,99926.84
2022-11-24T15:58:58.533Z,99936.34
2022-11-24T16:04:01.024Z,99939.97
2022-11-24T16:09:02.395Z,99944.81
2022-11-24T16:14:03.906Z,99942.81
2022-11-24T16:19:05.379Z,99946.22
2022-11-24T16:24:07.137Z,99949.28
2022-11-24T16:29:08.424Z,99961.28
2022-11-24T16:34:10.040Z,99967.94
2022-11-24T16:39:11.580Z,99969.19
2022-11-24T16:44:12.854Z,99965.53
2022-11-24T16:49:14.277Z,99968.47
2022-11-24T16:54:15.545Z,99963.66
2022-11-24T16:59:16.878Z,99969.47
2022-11-24T17:04:18.120Z,99972.19
2022-11-24T17:09:19.474Z,99946.84
2022-11-24T17:14:20.748Z,99971.16
2022-11-24T17:19:22.054Z,99969.13
2022-11-24T17:24:23.438Z,99976.88
2022-11-24T17:29:24.780Z,99976.25
2022-11-24T17:34:26.028Z,99966.72
2022-11-24T17:39:27.706Z,99990.41
2022-11-24T17:44:29.117Z,99985.94
2022-11-24T17:49:30.369Z,100005.38
2022-11-24T17:54:45.974Z,100010.09
2022-11-24T17:59:53.131Z,99994.50
2022-11-24T18:04:54.502Z,100019.28
2022-11-24T18:09:55.860Z,100026.25
2022-11-24T18:14:57.322Z,100020.81
2022-11-24T18:19:58.579Z,100008.78
2022-11-24T18:24:59.881Z,100027.84
2022-11-24T18:30:01.198Z,100028.91
2022-11-24T18:35:02.523Z,100015.53
2022-11-24T18:40:04.262Z,100017.94
2022-11-24T18:45:06.245Z,100027.34
2022-11-24T18:50:08.320Z,100015.28
2022-11-24T18:55:10.049Z,100014.41
2022-11-24T19:00:12.161Z,100014.06
2022-11-24T19:05:13.432Z,100023.50
2022-11-24T19:10:15.900Z,100008.16
2022-11-24T19:15:17.276Z,100015.03
2022-11-24T19:20:18.570Z,100015.78
2022-11-24T19:25:19.903Z,100015.50
2022-11-24T19:30:21.171Z,100007.31
2022-11-24T19:35:22.596Z,100009.22
2022-11-24T19:40:23.916Z,100021.03
2022-11-24T19:45:25.277Z,100013.47
2022-11-24T19:50:26.599Z,100019.09
2022-11-24T19:55:27.905Z,100019.34
2022-11-24T20:00:31.923Z,100011.38
2022-11-24T20:05:33.604Z,100011.34
2022-11-24T20:10:34.908Z,100014.31
2022-11-24T20:15:36.191Z,100026.59
2022-11-24T20:20:37.609Z,100015.47
2022-11-24T20:25:39.166Z,100028.72
2022-11-24T20:30:40.647Z,100029.53
2022-11-24T20:35:41.947Z,100016.50
2022-11-24T20:40:43.225Z,99993.28
2022-11-24T20:45:44.576Z,100023.91
2022-11-24T20:50:51.114Z,100035.72
2022-11-24T20:56:04.385Z,100031.09
2022-11-24T21:01:15.946Z,100021.19
2022-11-24T21:06:17.403Z,100018.75
2022-11-24T21:11:19.979Z,100021.88
2022-11-24T21:16:24.007Z,100024.13
2022-11-24T21:21:28.208Z,100036.25
2022-11-24T21:26:29.926Z,100042.56
2022-11-24T21:31:35.329Z,100044.47
2022-11-24T21:36:40.088Z,100050.53
2022-11-24T21:41:41.496Z,100042.38
2022-11-24T21:46:48.257Z,100044.53
2022-11-24T21:51:55.559Z,100051.75
2022-11-24T21:56:57.216Z,100050.38
2022-11-24T22:01:58.648Z,100054.31
2022-11-24T22:07:00.045Z,100046.91
2022-11-24T22:12:01.343Z,100043.72
2022-11-24T22:17:02.603Z,100046.56
2022-11-24T22:22:03.843Z,100048.50
2022-11-24T22:27:05.132Z,100048.81
2022-11-24T22:32:06.524Z,100049.56
2022-11-24T22:37:07.848Z,100055.59
2022-11-24T22:42:09.091Z,100046.91
2022-11-24T22:47:10.385Z,100035.28
2022-11-24T22:52:13.947Z,100034.22
2022-11-24T22:57:15.198Z,100039.63
2022-11-24T23:02:16.490Z,100026.38
2022-11-24T23:07:17.939Z,100038.88
2022-11-24T23:12:19.225Z,100026.16
2022-11-24T23:17:20.597Z,100035.47
2022-11-24T23:22:21.938Z,100032.00
2022-11-24T23:27:23.218Z,100044.47
2022-11-24T23:32:24.514Z,100033.47
2022-11-24T23:37:39.411Z,100033.78
2022-11-24T23:42:48.037Z,100039.06
2022-11-24T23:47:49.377Z,100044.66
2022-11-24T23:52:50.632Z,99978.06
2022-11-24T23:57:51.907Z,100035.03
